SBOSBO BLR / VOBL
Speedbird OnlineSpeedbird Online BLR / VOBL

Kempegowda International Airport
20:15 32°C

Location Bangalore, India
Latitude: 13.1979
Longitude: 77.706299
Local Time 20:15 on 17 Apr 2024
UTC +5.5 hours (Asia/Calcutta)
Currency £1 equals INR 104.27
METAR VOBL 171400Z 12006KT 6000 SCT015 33/13 Q1014 NOSIG
TAF TAF VOBL 171100Z 1712/1818 11005KT 6000 SCT015 TEMPO 1712/1715 SCT015 SCT020 FEW025CB TEMPO 1800/1803 4000 BR TEMPO 1809/1815 SCT012 SCT020 FEW025CB
Weather As Of 17 Apr 2024 20:15
Description Scattered clouds
Wind 11 km/h from South-East (120°)
Cloud Cover 40%
Precipitation Rain: none, Snow: none
Sunrise 06:05
Sunset 18:31
NOTAM 52 active NOTAM
Rotations During the last 90 days there were
80 flights from LHR
1 flights from MAA
83 flights to LHR
Lounges BLR International Lounge TEMPORARILY CLOSED , International Terminal
080 BLR International Lounge, International Terminal 2
080 Lounge, Terminal 1, International Departure Hall
Web Airport Website | Wikipedia
Codes IATA: BLR
ICAO: VOBL
Altitude 914 Meter / 3000 Feet
Distance 8,006 KM / 4,975 Miles
from London.
Runways
RunwayLength (m)Surface
09L4000Asphalt
09R4000Asphalt
27L4000Asphalt
27R4000Asphalt
Radio
TypeDescriptionFrequency
APP121.25
ATIS128.675
DELIVERY121.82
SMC121.65
TOWER124.35
Live ATC



Support Speedbird Online

© 2017-2024 Speedbird Online